sensor_id;sensor_type;location;lat;lon;timestamp;pressure;altitude;pressure_sealevel;temperature;humidity
5755;BME280;2902;42.130;24.732;2023-05-07T00:01:13;99757.84;;;16.54;88.40
5755;BME280;2902;42.130;24.732;2023-05-07T00:03:40;99755.53;;;16.40;88.95
5755;BME280;2902;42.130;24.732;2023-05-07T00:06:07;99755.41;;;16.53;88.32
5755;BME280;2902;42.130;24.732;2023-05-07T00:08:33;99756.50;;;16.63;88.20
5755;BME280;2902;42.130;24.732;2023-05-07T00:11:00;99755.66;;;16.63;87.95
5755;BME280;2902;42.130;24.732;2023-05-07T00:13:28;99751.84;;;16.70;88.17
5755;BME280;2902;42.130;24.732;2023-05-07T00:16:00;99752.56;;;16.77;88.06
5755;BME280;2902;42.130;24.732;2023-05-07T00:18:27;99752.69;;;16.82;87.67
5755;BME280;2902;42.130;24.732;2023-05-07T00:20:54;99749.09;;;16.88;87.05
5755;BME280;2902;42.130;24.732;2023-05-07T00:23:21;99749.00;;;16.95;86.67
5755;BME280;2902;42.130;24.732;2023-05-07T00:25:48;99745.84;;;16.98;85.65
5755;BME280;2902;42.130;24.732;2023-05-07T00:28:15;99754.03;;;17.03;85.77
5755;BME280;2902;42.130;24.732;2023-05-07T00:30:43;99749.22;;;17.05;85.26
5755;BME280;2902;42.130;24.732;2023-05-07T00:33:10;99752.03;;;17.10;84.85
5755;BME280;2902;42.130;24.732;2023-05-07T00:35:36;99749.50;;;17.15;84.74
5755;BME280;2902;42.130;24.732;2023-05-07T00:38:03;99746.59;;;17.16;83.98
5755;BME280;2902;42.130;24.732;2023-05-07T00:40:30;99755.44;;;17.17;83.67
5755;BME280;2902;42.130;24.732;2023-05-07T00:42:56;99758.56;;;17.14;82.96
5755;BME280;2902;42.130;24.732;2023-05-07T00:45:26;99758.13;;;17.17;82.59
5755;BME280;2902;42.130;24.732;2023-05-07T00:47:55;99751.00;;;17.11;82.09
5755;BME280;2902;42.130;24.732;2023-05-07T00:50:23;99756.22;;;16.94;81.93
5755;BME280;2902;42.130;24.732;2023-05-07T00:52:50;99745.19;;;16.73;82.50
5755;BME280;2902;42.130;24.732;2023-05-07T00:55:17;99761.69;;;16.88;82.08
5755;BME280;2902;42.130;24.732;2023-05-07T00:57:44;99759.34;;;16.91;82.15
5755;BME280;2902;42.130;24.732;2023-05-07T01:00:12;99764.63;;;16.98;81.88
5755;BME280;2902;42.130;24.732;2023-05-07T01:02:39;99763.34;;;17.00;81.75
5755;BME280;2902;42.130;24.732;2023-05-07T01:05:09;99761.25;;;17.02;81.68
5755;BME280;2902;42.130;24.732;2023-05-07T01:07:38;99767.00;;;17.06;81.53
5755;BME280;2902;42.130;24.732;2023-05-07T01:10:07;99756.25;;;17.06;81.22
5755;BME280;2902;42.130;24.732;2023-05-07T01:12:35;99767.69;;;17.13;81.09
5755;BME280;2902;42.130;24.732;2023-05-07T01:15:04;99761.84;;;17.16;81.21
5755;BME280;2902;42.130;24.732;2023-05-07T01:17:33;99765.59;;;17.15;81.71
5755;BME280;2902;42.130;24.732;2023-05-07T01:20:01;99756.38;;;17.11;81.64
5755;BME280;2902;42.130;24.732;2023-05-07T01:22:32;99759.50;;;17.08;81.92
5755;BME280;2902;42.130;24.732;2023-05-07T01:25:00;99757.88;;;17.07;81.66
5755;BME280;2902;42.130;24.732;2023-05-07T01:27:27;99761.13;;;17.09;81.74
5755;BME280;2902;42.130;24.732;2023-05-07T01:29:53;99752.03;;;17.10;81.63
5755;BME280;2902;42.130;24.732;2023-05-07T01:32:25;99750.75;;;17.01;81.79
5755;BME280;2902;42.130;24.732;2023-05-07T01:34:54;99754.47;;;17.00;82.00
5755;BME280;2902;42.130;24.732;2023-05-07T01:37:22;99754.25;;;17.01;82.53
5755;BME280;2902;42.130;24.732;2023-05-07T01:39:50;99760.44;;;17.02;81.80
5755;BME280;2902;42.130;24.732;2023-05-07T01:42:17;99760.91;;;16.99;81.71
5755;BME280;2902;42.130;24.732;2023-05-07T01:44:44;99759.28;;;16.98;81.45
5755;BME280;2902;42.130;24.732;2023-05-07T01:47:11;99750.97;;;16.99;82.09
5755;BME280;2902;42.130;24.732;2023-05-07T01:49:39;99750.75;;;17.01;82.52
5755;BME280;2902;42.130;24.732;2023-05-07T01:52:06;99749.44;;;16.92;83.38
5755;BME280;2902;42.130;24.732;2023-05-07T01:54:33;99753.84;;;16.75;84.49
5755;BME280;2902;42.130;24.732;2023-05-07T01:57:01;99747.94;;;16.55;86.28
5755;BME280;2902;42.130;24.732;2023-05-07T01:59:28;99752.72;;;16.53;86.62
5755;BME280;2902;42.130;24.732;2023-05-07T02:01:55;99750.84;;;16.53;87.69
5755;BME280;2902;42.130;24.732;2023-05-07T02:04:21;99752.00;;;16.46;87.57
5755;BME280;2902;42.130;24.732;2023-05-07T02:06:48;99746.09;;;16.37;88.22
5755;BME280;2902;42.130;24.732;2023-05-07T02:09:15;99742.03;;;16.17;88.57
5755;BME280;2902;42.130;24.732;2023-05-07T02:11:41;99751.13;;;16.16;89.58
5755;BME280;2902;42.130;24.732;2023-05-07T02:14:10;99750.25;;;16.04;89.85
5755;BME280;2902;42.130;24.732;2023-05-07T02:16:36;99739.06;;;16.07;90.62
5755;BME280;2902;42.130;24.732;2023-05-07T02:19:03;99727.25;;;15.96;90.97
5755;BME280;2902;42.130;24.732;2023-05-07T02:21:30;99742.34;;;15.90;91.36
5755;BME280;2902;42.130;24.732;2023-05-07T02:23:57;99745.50;;;15.88;91.41
5755;BME280;2902;42.130;24.732;2023-05-07T02:26:23;99746.00;;;15.96;91.55
5755;BME280;2902;42.130;24.732;2023-05-07T02:28:51;99715.81;;;15.89;91.34
5755;BME280;2902;42.130;24.732;2023-05-07T02:31:20;99741.53;;;16.08;91.01
5755;BME280;2902;42.130;24.732;2023-05-07T02:33:47;99734.09;;;16.10;90.46
5755;BME280;2902;42.130;24.732;2023-05-07T02:36:13;99739.16;;;16.00;90.26
5755;BME280;2902;42.130;24.732;2023-05-07T02:38:40;99738.72;;;16.03;90.24
5755;BME280;2902;42.130;24.732;2023-05-07T02:41:07;99742.78;;;16.06;89.52
5755;BME280;2902;42.130;24.732;2023-05-07T02:43:34;99747.72;;;16.09;88.87
5755;BME280;2902;42.130;24.732;2023-05-07T02:46:01;99746.88;;;16.08;88.85
5755;BME280;2902;42.130;24.732;2023-05-07T02:48:30;99745.03;;;16.09;88.54
5755;BME280;2902;42.130;24.732;2023-05-07T02:50:57;99732.06;;;16.06;88.15
5755;BME280;2902;42.130;24.732;2023-05-07T02:53:24;99738.25;;;16.06;88.21
5755;BME280;2902;42.130;24.732;2023-05-07T02:55:52;99740.72;;;16.08;88.18
5755;BME280;2902;42.130;24.732;2023-05-07T02:58:19;99739.97;;;16.01;88.79
5755;BME280;2902;42.130;24.732;2023-05-07T03:00:46;99732.59;;;15.96;89.04
5755;BME280;2902;42.130;24.732;2023-05-07T03:03:13;99730.63;;;15.92;89.07
5755;BME280;2902;42.130;24.732;2023-05-07T03:05:41;99732.09;;;15.88;89.76
5755;BME280;2902;42.130;24.732;2023-05-07T03:08:08;99727.03;;;15.79;91.21
5755;BME280;2902;42.130;24.732;2023-05-07T03:10:35;99726.00;;;15.62;92.48
5755;BME280;2902;42.130;24.732;2023-05-07T03:13:02;99709.75;;;15.39;93.13
5755;BME280;2902;42.130;24.732;2023-05-07T03:15:29;99725.03;;;15.32;94.39
5755;BME280;2902;42.130;24.732;2023-05-07T03:17:56;99732.31;;;15.25;95.93
5755;BME280;2902;42.130;24.732;2023-05-07T03:20:23;99726.25;;;15.12;96.63
5755;BME280;2902;42.130;24.732;2023-05-07T03:22:51;99727.81;;;15.01;97.28
5755;BME280;2902;42.130;24.732;2023-05-07T03:25:18;99722.72;;;14.93;97.68
5755;BME280;2902;42.130;24.732;2023-05-07T03:27:44;99732.06;;;14.84;98.76
5755;BME280;2902;42.130;24.732;2023-05-07T03:30:12;99734.53;;;14.79;99.78
5755;BME280;2902;42.130;24.732;2023-05-07T03:32:38;99731.28;;;14.77;100.00
5755;BME280;2902;42.130;24.732;2023-05-07T03:35:06;99733.53;;;14.74;100.00
5755;BME280;2902;42.130;24.732;2023-05-07T03:37:32;99730.13;;;14.67;100.00
5755;BME280;2902;42.130;24.732;2023-05-07T03:40:00;99741.25;;;14.64;100.00
5755;BME280;2902;42.130;24.732;2023-05-07T03:42:28;99738.78;;;14.62;100.00
5755;BME280;2902;42.130;24.732;2023-05-07T03:44:55;99736.31;;;14.61;100.00
5755;BME280;2902;42.130;24.732;2023-05-07T03:47:22;99741.72;;;14.54;100.00
5755;BME280;2902;42.130;24.732;2023-05-07T03:49:49;99739.19;;;14.59;100.00
5755;BME280;2902;42.130;24.732;2023-05-07T03:52:15;99743.78;;;14.52;100.00
5755;BME280;2902;42.130;24.732;2023-05-07T03:54:48;99737.47;;;14.71;100.00
5755;BME280;2902;42.130;24.732;2023-05-07T03:57:16;99744.94;;;15.18;100.00
5755;BME280;2902;42.130;24.732;2023-05-07T03:59:42;99747.50;;;15.74;97.02
5755;BME280;2902;42.130;24.732;2023-05-07T04:02:09;99746.91;;;16.38;94.62
5755;BME280;2902;42.130;24.732;2023-05-07T04:04:36;99753.63;;;16.88;89.90
5755;BME280;2902;42.130;24.732;2023-05-07T04:07:02;99754.84;;;17.38;85.94
5755;BME280;2902;42.130;24.732;2023-05-07T04:09:29;99763.50;;;17.86;82.81
5755;BME280;2902;42.130;24.732;2023-05-07T04:11:56;99779.78;;;18.42;79.41
5755;BME280;2902;42.130;24.732;2023-05-07T04:14:24;99766.97;;;18.77;77.30
5755;BME280;2902;42.130;24.732;2023-05-07T04:16:51;99777.78;;;19.10;75.64
5755;BME280;2902;42.130;24.732;2023-05-07T04:19:17;99776.91;;;19.54;74.00
5755;BME280;2902;42.130;24.732;2023-05-07T04:21:44;99780.56;;;19.81;71.26
5755;BME280;2902;42.130;24.732;2023-05-07T04:24:11;99773.97;;;20.10;70.46
5755;BME280;2902;42.130;24.732;2023-05-07T04:26:37;99781.72;;;20.49;67.64
5755;BME280;2902;42.130;24.732;2023-05-07T04:29:04;99781.16;;;20.74;67.02
5755;BME280;2902;42.130;24.732;2023-05-07T04:31:32;99787.50;;;21.11;65.88
5755;BME280;2902;42.130;24.732;2023-05-07T04:33:59;99788.78;;;21.35;63.79
5755;BME280;2902;42.130;24.732;2023-05-07T04:36:26;99795.91;;;21.83;62.69
5755;BME280;2902;42.130;24.732;2023-05-07T04:38:54;99794.13;;;21.98;60.84
5755;BME280;2902;42.130;24.732;2023-05-07T04:41:21;99791.72;;;22.07;60.51
5755;BME280;2902;42.130;24.732;2023-05-07T04:43:48;99791.53;;;22.23;59.65
5755;BME280;2902;42.130;24.732;2023-05-07T04:46:14;99788.94;;;22.48;59.93
5755;BME280;2902;42.130;24.732;2023-05-07T04:48:42;99790.63;;;22.69;57.91
5755;BME280;2902;42.130;24.732;2023-05-07T04:51:09;99790.69;;;22.89;58.13
5755;BME280;2902;42.130;24.732;2023-05-07T04:53:37;99788.56;;;23.51;56.55
5755;BME280;2902;42.130;24.732;2023-05-07T04:56:04;99792.28;;;24.00;55.23
5755;BME280;2902;42.130;24.732;2023-05-07T04:58:30;99789.41;;;24.45;53.50
5755;BME280;2902;42.130;24.732;2023-05-07T05:00:57;99778.31;;;24.90;50.65
5755;BME280;2902;42.130;24.732;2023-05-07T05:03:24;99781.44;;;25.08;50.37
5755;BME280;2902;42.130;24.732;2023-05-07T05:05:52;99785.09;;;25.32;49.76
5755;BME280;2902;42.130;24.732;2023-05-07T05:08:19;99785.59;;;25.67;49.40
5755;BME280;2902;42.130;24.732;2023-05-07T05:10:45;99784.75;;;25.67;48.94
5755;BME280;2902;42.130;24.732;2023-05-07T05:13:14;99784.44;;;26.02;47.57
5755;BME280;2902;42.130;24.732;2023-05-07T05:15:40;99782.25;;;26.46;45.95
5755;BME280;2902;42.130;24.732;2023-05-07T05:18:07;99790.22;;;26.84;44.62
5755;BME280;2902;42.130;24.732;2023-05-07T05:20:34;99788.34;;;26.80;43.79
5755;BME280;2902;42.130;24.732;2023-05-07T05:23:02;99794.53;;;27.04;45.02
5755;BME280;2902;42.130;24.732;2023-05-07T05:25:28;99795.13;;;27.01;43.84
5755;BME280;2902;42.130;24.732;2023-05-07T05:27:55;99801.16;;;26.98;43.98
5755;BME280;2902;42.130;24.732;2023-05-07T05:30:22;99798.38;;;26.66;45.57
5755;BME280;2902;42.130;24.732;2023-05-07T05:32:49;99804.50;;;26.95;43.95
5755;BME280;2902;42.130;24.732;2023-05-07T05:35:16;99798.44;;;27.35;43.22
5755;BME280;2902;42.130;24.732;2023-05-07T05:37:43;99802.56;;;27.32;42.31
5755;BME280;2902;42.130;24.732;2023-05-07T05:40:11;99799.91;;;27.27;44.32
5755;BME280;2902;42.130;24.732;2023-05-07T05:42:38;99802.47;;;27.69;41.59
5755;BME280;2902;42.130;24.732;2023-05-07T05:45:06;99793.09;;;27.43;43.22
5755;BME280;2902;42.130;24.732;2023-05-07T05:47:33;99814.13;;;27.43;41.31
5755;BME280;2902;42.130;24.732;2023-05-07T05:49:59;99809.00;;;27.55;41.60
5755;BME280;2902;42.130;24.732;2023-05-07T05:52:26;99804.38;;;28.01;41.31
5755;BME280;2902;42.130;24.732;2023-05-07T05:54:53;99806.00;;;28.15;40.51
5755;BME280;2902;42.130;24.732;2023-05-07T05:57:21;99816.00;;;28.74;38.50
5755;BME280;2902;42.130;24.732;2023-05-07T05:59:48;99812.38;;;28.65;38.60
5755;BME280;2902;42.130;24.732;2023-05-07T06:02:15;99815.38;;;29.04;37.71
5755;BME280;2902;42.130;24.732;2023-05-07T06:04:41;99801.75;;;29.35;36.69
5755;BME280;2902;42.130;24.732;2023-05-07T06:07:08;99814.13;;;29.54;36.30
5755;BME280;2902;42.130;24.732;2023-05-07T06:09:35;99807.25;;;29.35;35.68
5755;BME280;2902;42.130;24.732;2023-05-07T06:12:02;99819.09;;;29.08;37.47
5755;BME280;2902;42.130;24.732;2023-05-07T06:14:30;99811.38;;;29.10;37.10
5755;BME280;2902;42.130;24.732;2023-05-07T06:16:57;99817.09;;;29.00;37.00
5755;BME280;2902;42.130;24.732;2023-05-07T06:19:23;99800.59;;;28.78;37.06
5755;BME280;2902;42.130;24.732;2023-05-07T06:21:51;99814.59;;;28.76;35.99
5755;BME280;2902;42.130;24.732;2023-05-07T06:24:18;99808.94;;;28.19;37.94
5755;BME280;2902;42.130;24.732;2023-05-07T06:26:45;99804.16;;;27.97;38.76
5755;BME280;2902;42.130;24.732;2023-05-07T06:29:12;99795.88;;;27.89;37.97
5755;BME280;2902;42.130;24.732;2023-05-07T06:31:40;99806.41;;;27.95;39.13
5755;BME280;2902;42.130;24.732;2023-05-07T06:34:07;99812.91;;;28.53;36.83
5755;BME280;2902;42.130;24.732;2023-05-07T06:36:34;99798.28;;;28.71;37.02
5755;BME280;2902;42.130;24.732;2023-05-07T06:39:00;99800.78;;;28.95;37.03
5755;BME280;2902;42.130;24.732;2023-05-07T06:41:27;99796.22;;;29.04;36.29
5755;BME280;2902;42.130;24.732;2023-05-07T06:43:54;99801.03;;;29.07;34.90
5755;BME280;2902;42.130;24.732;2023-05-07T06:46:21;99809.66;;;28.38;36.99
5755;BME280;2902;42.130;24.732;2023-05-07T06:48:49;99802.88;;;28.08;37.72
5755;BME280;2902;42.130;24.732;2023-05-07T06:51:15;99793.03;;;28.21;37.95
5755;BME280;2902;42.130;24.732;2023-05-07T06:53:42;99800.03;;;28.27;37.98
5755;BME280;2902;42.130;24.732;2023-05-07T06:56:09;99805.34;;;28.86;37.33
5755;BME280;2902;42.130;24.732;2023-05-07T06:58:37;99805.56;;;28.76;37.04
5755;BME280;2902;42.130;24.732;2023-05-07T07:01:03;99806.34;;;28.90;36.03
5755;BME280;2902;42.130;24.732;2023-05-07T07:03:30;99805.53;;;29.03;35.75
5755;BME280;2902;42.130;24.732;2023-05-07T07:05:58;99800.00;;;28.67;36.84
5755;BME280;2902;42.130;24.732;2023-05-07T07:08:27;99801.94;;;28.40;36.65
5755;BME280;2902;42.130;24.732;2023-05-07T07:10:53;99805.91;;;28.34;37.89
5755;BME280;2902;42.130;24.732;2023-05-07T07:13:20;99795.38;;;28.41;38.68
5755;BME280;2902;42.130;24.732;2023-05-07T07:15:47;99797.31;;;28.54;37.51
5755;BME280;2902;42.130;24.732;2023-05-07T07:18:13;99800.06;;;28.89;37.08
5755;BME280;2902;42.130;24.732;2023-05-07T07:20:40;99804.16;;;29.14;36.39
5755;BME280;2902;42.130;24.732;2023-05-07T07:23:08;99803.25;;;29.18;36.19
5755;BME280;2902;42.130;24.732;2023-05-07T07:25:35;99798.81;;;29.09;36.63
5755;BME280;2902;42.130;24.732;2023-05-07T07:28:02;99805.41;;;29.08;35.61
5755;BME280;2902;42.130;24.732;2023-05-07T07:30:29;99816.06;;;29.09;35.99
5755;BME280;2902;42.130;24.732;2023-05-07T07:32:55;99809.03;;;29.17;35.82
5755;BME280;2902;42.130;24.732;2023-05-07T07:35:27;99824.31;;;29.18;34.97
5755;BME280;2902;42.130;24.732;2023-05-07T07:37:54;99812.41;;;29.36;35.29
5755;BME280;2902;42.130;24.732;2023-05-07T07:40:22;99813.63;;;29.52;34.63
5755;BME280;2902;42.130;24.732;2023-05-07T07:42:50;99812.41;;;29.36;34.17
5755;BME280;2902;42.130;24.732;2023-05-07T07:45:17;99819.28;;;28.98;34.87
5755;BME280;2902;42.130;24.732;2023-05-07T07:47:43;99813.81;;;28.98;36.11
5755;BME280;2902;42.130;24.732;2023-05-07T07:50:10;99822.72;;;29.17;35.50
5755;BME280;2902;42.130;24.732;2023-05-07T07:52:37;99810.16;;;29.38;35.89
5755;BME280;2902;42.130;24.732;2023-05-07T07:55:05;99819.03;;;29.57;36.14
5755;BME280;2902;42.130;24.732;2023-05-07T07:57:33;99815.41;;;29.70;35.01
5755;BME280;2902;42.130;24.732;2023-05-07T08:00:00;99815.25;;;29.53;34.54
5755;BME280;2902;42.130;24.732;2023-05-07T08:02:27;99817.75;;;29.41;35.27
5755;BME280;2902;42.130;24.732;2023-05-07T08:04:54;99815.16;;;29.58;35.78
5755;BME280;2902;42.130;24.732;2023-05-07T08:07:21;99813.66;;;29.83;34.81
5755;BME280;2902;42.130;24.732;2023-05-07T08:09:48;99811.28;;;29.81;35.10
5755;BME280;2902;42.130;24.732;2023-05-07T08:12:15;99813.53;;;29.57;35.97
5755;BME280;2902;42.130;24.732;2023-05-07T08:14:43;99800.91;;;29.56;35.88
5755;BME280;2902;42.130;24.732;2023-05-07T08:17:10;99808.91;;;29.44;34.77
5755;BME280;2902;42.130;24.732;2023-05-07T08:19:36;99809.50;;;29.19;36.36
5755;BME280;2902;42.130;24.732;2023-05-07T08:22:03;99805.69;;;29.20;35.45
5755;BME280;2902;42.130;24.732;2023-05-07T08:24:31;99785.56;;;29.24;35.52
5755;BME280;2902;42.130;24.732;2023-05-07T08:26:57;99794.41;;;29.44;35.50
5755;BME280;2902;42.130;24.732;2023-05-07T08:29:24;99795.34;;;29.39;36.29
5755;BME280;2902;42.130;24.732;2023-05-07T08:31:52;99794.25;;;29.40;35.46
5755;BME280;2902;42.130;24.732;2023-05-07T08:34:19;99801.16;;;29.60;35.23
5755;BME280;2902;42.130;24.732;2023-05-07T08:36:46;99789.97;;;29.78;34.71
5755;BME280;2902;42.130;24.732;2023-05-07T08:39:14;99791.59;;;29.79;34.33
5755;BME280;2902;42.130;24.732;2023-05-07T08:41:44;99791.50;;;29.62;34.09
5755;BME280;2902;42.130;24.732;2023-05-07T08:44:12;99795.38;;;29.61;34.53
5755;BME280;2902;42.130;24.732;2023-05-07T08:46:41;99787.63;;;29.63;34.44
5755;BME280;2902;42.130;24.732;2023-05-07T08:49:10;99780.75;;;29.52;35.09
5755;BME280;2902;42.130;24.732;2023-05-07T08:51:37;99790.91;;;29.52;34.30
5755;BME280;2902;42.130;24.732;2023-05-07T08:54:04;99769.19;;;29.55;35.22
5755;BME280;2902;42.130;24.732;2023-05-07T08:56:32;99774.53;;;29.82;34.58
5755;BME280;2902;42.130;24.732;2023-05-07T08:58:59;99771.03;;;29.90;34.61
5755;BME280;2902;42.130;24.732;2023-05-07T09:01:26;99776.44;;;29.73;34.49
5755;BME280;2902;42.130;24.732;2023-05-07T09:03:53;99772.78;;;29.95;34.02
5755;BME280;2902;42.130;24.732;2023-05-07T09:06:21;99769.13;;;29.99;33.45
5755;BME280;2902;42.130;24.732;2023-05-07T09:08:52;99773.91;;;29.85;32.92
5755;BME280;2902;42.130;24.732;2023-05-07T09:11:22;99772.63;;;29.61;33.17
5755;BME280;2902;42.130;24.732;2023-05-07T09:13:53;99759.84;;;29.56;33.36
5755;BME280;2902;42.130;24.732;2023-05-07T09:16:21;99787.00;;;29.66;33.29
5755;BME280;2902;42.130;24.732;2023-05-07T09:18:50;99767.69;;;29.71;32.50
5755;BME280;2902;42.130;24.732;2023-05-07T09:21:18;99750.16;;;29.50;31.71
5755;BME280;2902;42.130;24.732;2023-05-07T09:23:47;99766.63;;;29.28;33.44
5755;BME280;2902;42.130;24.732;2023-05-07T09:26:14;99761.25;;;29.23;33.15
5755;BME280;2902;42.130;24.732;2023-05-07T09:28:41;99764.00;;;29.45;32.43
5755;BME280;2902;42.130;24.732;2023-05-07T09:31:08;99746.59;;;29.50;31.46
5755;BME280;2902;42.130;24.732;2023-05-07T09:33:35;99756.75;;;29.71;30.98
5755;BME280;2902;42.130;24.732;2023-05-07T09:36:03;99756.63;;;29.54;29.63
5755;BME280;2902;42.130;24.732;2023-05-07T09:38:30;99759.75;;;28.95;29.90
5755;BME280;2902;42.130;24.732;2023-05-07T09:41:06;99754.47;;;28.63;29.08
5755;BME280;2902;42.130;24.732;2023-05-07T09:43:34;99741.50;;;28.68;29.78
5755;BME280;2902;42.130;24.732;2023-05-07T09:46:07;99747.19;;;28.58;30.65
5755;BME280;2902;42.130;24.732;2023-05-07T09:48:37;99731.03;;;28.70;31.24
5755;BME280;2902;42.130;24.732;2023-05-07T09:51:09;99743.56;;;28.85;31.14
5755;BME280;2902;42.130;24.732;2023-05-07T09:53:40;99746.53;;;28.97;29.78
5755;BME280;2902;42.130;24.732;2023-05-07T09:56:09;99729.66;;;29.17;30.16
5755;BME280;2902;42.130;24.732;2023-05-07T09:58:39;99726.50;;;29.23;29.98
5755;BME280;2902;42.130;24.732;2023-05-07T10:01:08;99740.97;;;29.02;29.76
5755;BME280;2902;42.130;24.732;2023-05-07T10:03:36;99720.94;;;28.71;30.40
5755;BME280;2902;42.130;24.732;2023-05-07T10:06:05;99725.81;;;28.60;30.67
5755;BME280;2902;42.130;24.732;2023-05-07T10:08:32;99723.53;;;28.76;31.10
5755;BME280;2902;42.130;24.732;2023-05-07T10:10:59;99731.06;;;28.57;31.50
5755;BME280;2902;42.130;24.732;2023-05-07T10:13:28;99718.25;;;28.44;30.96
5755;BME280;2902;42.130;24.732;2023-05-07T10:15:55;99717.75;;;27.61;31.68
5755;BME280;2902;42.130;24.732;2023-05-07T10:18:23;99723.84;;;27.85;31.78
5755;BME280;2902;42.130;24.732;2023-05-07T10:20:57;99712.06;;;27.71;31.32
5755;BME280;2902;42.130;24.732;2023-05-07T10:23:29;99701.38;;;27.88;30.70
5755;BME280;2902;42.130;24.732;2023-05-07T10:25:58;99700.97;;;28.08;31.19
5755;BME280;2902;42.130;24.732;2023-05-07T10:28:26;99698.25;;;28.08;31.59
5755;BME280;2902;42.130;24.732;2023-05-07T10:31:07;99695.91;;;27.88;31.70
5755;BME280;2902;42.130;24.732;2023-05-07T10:33:34;99692.84;;;27.49;32.63
5755;BME280;2902;42.130;24.732;2023-05-07T10:36:02;99684.53;;;27.27;32.73
5755;BME280;2902;42.130;24.732;2023-05-07T10:38:30;99684.78;;;27.44;32.59
5755;BME280;2902;42.130;24.732;2023-05-07T10:40:58;99692.34;;;27.15;33.07
5755;BME280;2902;42.130;24.732;2023-05-07T10:43:24;99685.44;;;27.04;33.18
5755;BME280;2902;42.130;24.732;2023-05-07T10:46:15;99678.56;;;26.56;33.28
5755;BME280;2902;42.130;24.732;2023-05-07T10:49:10;99674.03;;;26.70;32.93
5755;BME280;2902;42.130;24.732;2023-05-07T10:51:38;99677.44;;;26.94;32.54
5755;BME280;2902;42.130;24.732;2023-05-07T10:54:21;99672.69;;;26.86;32.29
5755;BME280;2902;42.130;24.732;2023-05-07T10:56:49;99666.66;;;27.02;31.87
5755;BME280;2902;42.130;24.732;2023-05-07T10:59:34;99669.59;;;26.74;32.69
5755;BME280;2902;42.130;24.732;2023-05-07T11:02:08;99667.00;;;26.82;31.73
5755;BME280;2902;42.130;24.732;2023-05-07T11:04:37;99666.78;;;27.11;32.59
5755;BME280;2902;42.130;24.732;2023-05-07T11:07:25;99664.06;;;26.79;32.22
5755;BME280;2902;42.130;24.732;2023-05-07T11:09:57;99660.91;;;26.72;31.87
5755;BME280;2902;42.130;24.732;2023-05-07T11:15:47;99674.53;;;25.93;34.38
5755;BME280;2902;42.130;24.732;2023-05-07T11:18:17;99652.88;;;26.25;33.39
5755;BME280;2902;42.130;24.732;2023-05-07T11:20:52;99649.13;;;26.58;33.81
5755;BME280;2902;42.130;24.732;2023-05-07T11:26:45;99648.38;;;27.03;32.43
5755;BME280;2902;42.130;24.732;2023-05-07T11:29:14;99637.97;;;27.05;31.26
5755;BME280;2902;42.130;24.732;2023-05-07T11:31:42;99649.38;;;27.25;31.33
5755;BME280;2902;42.130;24.732;2023-05-07T11:34:10;99641.22;;;27.07;30.81
5755;BME280;2902;42.130;24.732;2023-05-07T11:36:42;99653.00;;;27.21;30.58
5755;BME280;2902;42.130;24.732;2023-05-07T11:39:30;99647.81;;;26.37;32.06
5755;BME280;2902;42.130;24.732;2023-05-07T11:41:58;99643.06;;;26.24;33.00
5755;BME280;2902;42.130;24.732;2023-05-07T11:44:25;99634.50;;;26.49;32.10
5755;BME280;2902;42.130;24.732;2023-05-07T11:46:51;99640.34;;;26.61;31.80
5755;BME280;2902;42.130;24.732;2023-05-07T11:49:19;99636.88;;;26.74;31.87
5755;BME280;2902;42.130;24.732;2023-05-07T11:51:46;99660.94;;;26.85;31.71
5755;BME280;2902;42.130;24.732;2023-05-07T11:54:16;99649.63;;;26.60;31.50
5755;BME280;2902;42.130;24.732;2023-05-07T11:56:43;99636.94;;;26.69;31.09
5755;BME280;2902;42.130;24.732;2023-05-07T11:59:16;99634.00;;;26.47;31.89
5755;BME280;2902;42.130;24.732;2023-05-07T12:01:45;99633.34;;;26.55;32.74
5755;BME280;2902;42.130;24.732;2023-05-07T12:04:12;99634.97;;;26.19;33.35
5755;BME280;2902;42.130;24.732;2023-05-07T12:06:40;99633.94;;;26.15;32.17
5755;BME280;2902;42.130;24.732;2023-05-07T12:09:07;99626.81;;;26.19;32.87
5755;BME280;2902;42.130;24.732;2023-05-07T12:11:36;99626.97;;;26.27;33.71
5755;BME280;2902;42.130;24.732;2023-05-07T12:14:05;99622.63;;;26.45;34.14
5755;BME280;2902;42.130;24.732;2023-05-07T12:16:32;99625.84;;;26.47;33.54
5755;BME280;2902;42.130;24.732;2023-05-07T12:18:59;99622.38;;;26.60;33.25
5755;BME280;2902;42.130;24.732;2023-05-07T12:21:26;99614.84;;;26.70;33.22
5755;BME280;2902;42.130;24.732;2023-05-07T12:23:54;99613.78;;;26.85;32.55
5755;BME280;2902;42.130;24.732;2023-05-07T12:26:21;99611.34;;;26.83;32.15
5755;BME280;2902;42.130;24.732;2023-05-07T12:28:48;99615.38;;;27.04;32.05
5755;BME280;2902;42.130;24.732;2023-05-07T12:31:14;99616.91;;;26.78;31.91
5755;BME280;2902;42.130;24.732;2023-05-07T12:33:42;99614.22;;;26.60;32.90
5755;BME280;2902;42.130;24.732;2023-05-07T12:36:12;99600.84;;;26.77;33.10
5755;BME280;2902;42.130;24.732;2023-05-07T12:38:39;99596.69;;;26.66;32.43
5755;BME280;2902;42.130;24.732;2023-05-07T12:41:09;99590.50;;;26.42;32.70
5755;BME280;2902;42.130;24.732;2023-05-07T12:43:37;99596.69;;;26.66;31.89
5755;BME280;2902;42.130;24.732;2023-05-07T12:46:06;99597.38;;;26.71;31.87
5755;BME280;2902;42.130;24.732;2023-05-07T12:48:33;99593.91;;;26.34;33.17
5755;BME280;2902;42.130;24.732;2023-05-07T12:51:01;99596.88;;;26.51;32.94
5755;BME280;2902;42.130;24.732;2023-05-07T12:53:29;99580.38;;;26.61;32.97
5755;BME280;2902;42.130;24.732;2023-05-07T12:55:57;99575.91;;;26.70;32.61
5755;BME280;2902;42.130;24.732;2023-05-07T12:58:27;99570.75;;;26.50;33.34
5755;BME280;2902;42.130;24.732;2023-05-07T13:00:55;99580.91;;;26.63;32.72
5755;BME280;2902;42.130;24.732;2023-05-07T13:03:27;99567.38;;;26.58;33.60
5755;BME280;2902;42.130;24.732;2023-05-07T13:05:55;99574.34;;;26.64;33.24
5755;BME280;2902;42.130;24.732;2023-05-07T13:08:30;99562.72;;;26.58;33.20
5755;BME280;2902;42.130;24.732;2023-05-07T13:10:57;99566.19;;;26.64;33.26
5755;BME280;2902;42.130;24.732;2023-05-07T13:13:26;99558.09;;;26.59;32.79
5755;BME280;2902;42.130;24.732;2023-05-07T13:15:53;99562.50;;;26.55;32.66
5755;BME280;2902;42.130;24.732;2023-05-07T13:18:19;99561.97;;;26.53;33.09
5755;BME280;2902;42.130;24.732;2023-05-07T13:20:46;99558.19;;;26.35;32.80